sensor_id;sensor_type;location;lat;lon;timestamp;temperature;humidity
74488;DHT22;63019;51.080;13.642;2023-12-28T00:00:59;4.90;99.90
74488;DHT22;63019;51.080;13.642;2023-12-28T00:02:02;4.90;99.90
74488;DHT22;63019;51.080;13.642;2023-12-28T00:03:05;4.90;99.90
74488;DHT22;63019;51.080;13.642;2023-12-28T00:04:07;4.90;99.90
74488;DHT22;63019;51.080;13.642;2023-12-28T00:05:09;4.90;99.90
74488;DHT22;63019;51.080;13.642;2023-12-28T00:06:11;4.80;99.90
74488;DHT22;63019;51.080;13.642;2023-12-28T00:07:13;4.80;99.90
74488;DHT22;63019;51.080;13.642;2023-12-28T00:08:15;4.80;99.90
74488;DHT22;63019;51.080;13.642;2023-12-28T00:09:16;4.80;99.90
74488;DHT22;63019;51.080;13.642;2023-12-28T00:10:18;4.80;99.90
74488;DHT22;63019;51.080;13.642;2023-12-28T00:11:20;4.80;99.90
74488;DHT22;63019;51.080;13.642;2023-12-28T00:12:22;4.80;99.90
74488;DHT22;63019;51.080;13.642;2023-12-28T00:13:24;4.80;99.90
74488;DHT22;63019;51.080;13.642;2023-12-28T00:14:26;4.80;99.90
74488;DHT22;63019;51.080;13.642;2023-12-28T00:15:28;4.80;99.90
74488;DHT22;63019;51.080;13.642;2023-12-28T00:16:31;4.80;99.90
74488;DHT22;63019;51.080;13.642;2023-12-28T00:17:34;4.80;99.90
74488;DHT22;63019;51.080;13.642;2023-12-28T00:18:36;4.80;99.90
74488;DHT22;63019;51.080;13.642;2023-12-28T00:19:38;4.80;99.90
74488;DHT22;63019;51.080;13.642;2023-12-28T00:20:40;4.80;99.90
74488;DHT22;63019;51.080;13.642;2023-12-28T00:21:41;4.70;99.90
74488;DHT22;63019;51.080;13.642;2023-12-28T00:22:43;4.70;99.90
74488;DHT22;63019;51.080;13.642;2023-12-28T00:23:45;4.70;99.90
74488;DHT22;63019;51.080;13.642;2023-12-28T00:24:47;4.70;99.90
74488;DHT22;63019;51.080;13.642;2023-12-28T00:25:49;4.70;99.90
74488;DHT22;63019;51.080;13.642;2023-12-28T00:26:50;4.70;99.90
74488;DHT22;63019;51.080;13.642;2023-12-28T00:27:52;4.70;99.90
74488;DHT22;63019;51.080;13.642;2023-12-28T00:28:54;4.70;99.90
74488;DHT22;63019;51.080;13.642;2023-12-28T00:29:56;4.80;99.90
74488;DHT22;63019;51.080;13.642;2023-12-28T00:30:58;4.70;99.90
74488;DHT22;63019;51.080;13.642;2023-12-28T00:31:59;4.80;99.90
74488;DHT22;63019;51.080;13.642;2023-12-28T00:33:01;4.80;99.90
74488;DHT22;63019;51.080;13.642;2023-12-28T00:34:04;4.80;99.90
74488;DHT22;63019;51.080;13.642;2023-12-28T00:35:06;4.80;99.90
74488;DHT22;63019;51.080;13.642;2023-12-28T00:36:08;4.80;99.90
74488;DHT22;63019;51.080;13.642;2023-12-28T00:37:10;4.70;99.90
74488;DHT22;63019;51.080;13.642;2023-12-28T00:38:12;4.80;99.90
74488;DHT22;63019;51.080;13.642;2023-12-28T00:39:14;4.80;99.90
74488;DHT22;63019;51.080;13.642;2023-12-28T00:40:16;4.80;99.90
74488;DHT22;63019;51.080;13.642;2023-12-28T00:41:18;4.80;99.90
74488;DHT22;63019;51.080;13.642;2023-12-28T00:42:20;4.80;99.90
74488;DHT22;63019;51.080;13.642;2023-12-28T00:43:22;4.80;99.90
74488;DHT22;63019;51.080;13.642;2023-12-28T00:44:24;4.80;99.90
74488;DHT22;63019;51.080;13.642;2023-12-28T00:45:25;4.80;99.90
74488;DHT22;63019;51.080;13.642;2023-12-28T00:46:27;4.80;99.90
74488;DHT22;63019;51.080;13.642;2023-12-28T00:47:29;4.80;99.90
74488;DHT22;63019;51.080;13.642;2023-12-28T00:48:31;4.80;99.90
74488;DHT22;63019;51.080;13.642;2023-12-28T00:49:33;4.80;99.90
74488;DHT22;63019;51.080;13.642;2023-12-28T00:50:35;4.80;99.90
74488;DHT22;63019;51.080;13.642;2023-12-28T00:51:37;4.80;99.90
74488;DHT22;63019;51.080;13.642;2023-12-28T00:52:39;4.80;99.90
74488;DHT22;63019;51.080;13.642;2023-12-28T00:53:41;4.80;99.90
74488;DHT22;63019;51.080;13.642;2023-12-28T00:54:42;4.80;99.90
74488;DHT22;63019;51.080;13.642;2023-12-28T00:55:44;4.80;99.90
74488;DHT22;63019;51.080;13.642;2023-12-28T00:56:46;4.80;99.90
74488;DHT22;63019;51.080;13.642;2023-12-28T00:57:48;4.80;99.90
74488;DHT22;63019;51.080;13.642;2023-12-28T00:58:49;4.80;99.90
74488;DHT22;63019;51.080;13.642;2023-12-28T00:59:51;4.80;99.90
74488;DHT22;63019;51.080;13.642;2023-12-28T01:00:53;4.80;99.90
74488;DHT22;63019;51.080;13.642;2023-12-28T01:01:57;4.80;99.90
74488;DHT22;63019;51.080;13.642;2023-12-28T01:02:59;4.80;99.90
74488;DHT22;63019;51.080;13.642;2023-12-28T01:04:01;4.80;99.90
74488;DHT22;63019;51.080;13.642;2023-12-28T01:05:03;4.80;99.90
74488;DHT22;63019;51.080;13.642;2023-12-28T01:06:06;4.80;99.90
74488;DHT22;63019;51.080;13.642;2023-12-28T01:07:08;4.80;99.90
74488;DHT22;63019;51.080;13.642;2023-12-28T01:08:11;4.80;99.90
74488;DHT22;63019;51.080;13.642;2023-12-28T01:09:13;4.80;99.90
74488;DHT22;63019;51.080;13.642;2023-12-28T01:10:14;4.80;99.90
74488;DHT22;63019;51.080;13.642;2023-12-28T01:11:16;4.70;99.90
74488;DHT22;63019;51.080;13.642;2023-12-28T01:12:18;4.70;99.90
74488;DHT22;63019;51.080;13.642;2023-12-28T01:13:20;4.70;99.90
74488;DHT22;63019;51.080;13.642;2023-12-28T01:14:22;4.70;99.90
74488;DHT22;63019;51.080;13.642;2023-12-28T01:15:23;4.70;99.90
74488;DHT22;63019;51.080;13.642;2023-12-28T01:16:25;4.70;99.90
74488;DHT22;63019;51.080;13.642;2023-12-28T01:17:27;4.60;99.90
74488;DHT22;63019;51.080;13.642;2023-12-28T01:18:29;4.70;99.90
74488;DHT22;63019;51.080;13.642;2023-12-28T01:19:31;4.70;99.90
74488;DHT22;63019;51.080;13.642;2023-12-28T01:20:33;4.70;99.90
74488;DHT22;63019;51.080;13.642;2023-12-28T01:21:34;4.70;99.90
74488;DHT22;63019;51.080;13.642;2023-12-28T01:22:36;4.70;99.90
74488;DHT22;63019;51.080;13.642;2023-12-28T01:23:38;4.70;99.90
74488;DHT22;63019;51.080;13.642;2023-12-28T01:24:40;4.70;99.90
74488;DHT22;63019;51.080;13.642;2023-12-28T01:25:42;4.80;99.90
74488;DHT22;63019;51.080;13.642;2023-12-28T01:26:44;4.80;99.90
74488;DHT22;63019;51.080;13.642;2023-12-28T01:27:46;4.80;99.90
74488;DHT22;63019;51.080;13.642;2023-12-28T01:28:47;4.90;99.90
74488;DHT22;63019;51.080;13.642;2023-12-28T01:29:49;5.00;99.90
74488;DHT22;63019;51.080;13.642;2023-12-28T01:30:51;5.10;99.90
74488;DHT22;63019;51.080;13.642;2023-12-28T01:31:53;5.20;99.90
74488;DHT22;63019;51.080;13.642;2023-12-28T01:32:55;5.50;99.90
74488;DHT22;63019;51.080;13.642;2023-12-28T01:33:57;5.70;99.90
74488;DHT22;63019;51.080;13.642;2023-12-28T01:34:59;6.00;99.30
74488;DHT22;63019;51.080;13.642;2023-12-28T01:36:00;6.50;97.70
74488;DHT22;63019;51.080;13.642;2023-12-28T01:37:02;6.80;96.40
74488;DHT22;63019;51.080;13.642;2023-12-28T01:38:04;7.20;94.50
74488;DHT22;63019;51.080;13.642;2023-12-28T01:39:06;7.50;94.00
74488;DHT22;63019;51.080;13.642;2023-12-28T01:40:08;7.80;93.50
74488;DHT22;63019;51.080;13.642;2023-12-28T01:41:10;8.00;92.60
74488;DHT22;63019;51.080;13.642;2023-12-28T01:42:14;8.20;91.70
74488;DHT22;63019;51.080;13.642;2023-12-28T01:43:16;8.40;91.00
74488;DHT22;63019;51.080;13.642;2023-12-28T01:44:18;8.60;90.50
74488;DHT22;63019;51.080;13.642;2023-12-28T01:45:20;8.70;90.20
74488;DHT22;63019;51.080;13.642;2023-12-28T01:46:22;8.90;90.00
74488;DHT22;63019;51.080;13.642;2023-12-28T01:47:27;9.00;88.40
74488;DHT22;63019;51.080;13.642;2023-12-28T01:48:30;9.10;88.60
74488;DHT22;63019;51.080;13.642;2023-12-28T01:49:33;9.10;87.00
74488;DHT22;63019;51.080;13.642;2023-12-28T01:50:36;9.20;83.10
74488;DHT22;63019;51.080;13.642;2023-12-28T01:51:38;9.30;81.80
74488;DHT22;63019;51.080;13.642;2023-12-28T01:52:41;9.50;83.80
74488;DHT22;63019;51.080;13.642;2023-12-28T01:53:44;9.50;83.90
74488;DHT22;63019;51.080;13.642;2023-12-28T01:54:46;9.50;79.10
74488;DHT22;63019;51.080;13.642;2023-12-28T01:55:49;9.60;80.80
74488;DHT22;63019;51.080;13.642;2023-12-28T01:56:51;9.60;79.90
74488;DHT22;63019;51.080;13.642;2023-12-28T01:57:53;9.60;81.10
74488;DHT22;63019;51.080;13.642;2023-12-28T01:58:56;9.60;81.20
74488;DHT22;63019;51.080;13.642;2023-12-28T01:59:58;9.70;78.40
74488;DHT22;63019;51.080;13.642;2023-12-28T02:01:03;9.70;80.00
74488;DHT22;63019;51.080;13.642;2023-12-28T02:02:06;9.70;80.30
74488;DHT22;63019;51.080;13.642;2023-12-28T02:03:08;9.70;80.10
74488;DHT22;63019;51.080;13.642;2023-12-28T02:04:10;9.70;77.60
74488;DHT22;63019;51.080;13.642;2023-12-28T02:05:13;9.80;78.00
74488;DHT22;63019;51.080;13.642;2023-12-28T02:06:15;9.80;78.20
74488;DHT22;63019;51.080;13.642;2023-12-28T02:07:18;9.80;77.40
74488;DHT22;63019;51.080;13.642;2023-12-28T02:08:22;9.90;75.00
74488;DHT22;63019;51.080;13.642;2023-12-28T02:09:24;9.90;75.40
74488;DHT22;63019;51.080;13.642;2023-12-28T02:10:26;9.90;75.10
74488;DHT22;63019;51.080;13.642;2023-12-28T02:11:28;10.00;73.20
74488;DHT22;63019;51.080;13.642;2023-12-28T02:12:30;10.00;72.30
74488;DHT22;63019;51.080;13.642;2023-12-28T02:13:32;10.10;72.80
74488;DHT22;63019;51.080;13.642;2023-12-28T02:14:34;10.20;71.80
74488;DHT22;63019;51.080;13.642;2023-12-28T02:15:36;10.20;72.60
74488;DHT22;63019;51.080;13.642;2023-12-28T02:16:50;10.20;72.80
74488;DHT22;63019;51.080;13.642;2023-12-28T02:18:09;10.20;71.60
74488;DHT22;63019;51.080;13.642;2023-12-28T02:20:44;10.30;69.50
74488;DHT22;63019;51.080;13.642;2023-12-28T02:21:47;10.30;70.80
74488;DHT22;63019;51.080;13.642;2023-12-28T02:22:50;10.30;73.60
74488;DHT22;63019;51.080;13.642;2023-12-28T02:23:52;10.30;70.60
74488;DHT22;63019;51.080;13.642;2023-12-28T02:25:55;10.30;69.50
74488;DHT22;63019;51.080;13.642;2023-12-28T02:26:57;10.30;71.10
74488;DHT22;63019;51.080;13.642;2023-12-28T02:27:59;10.30;70.50
74488;DHT22;63019;51.080;13.642;2023-12-28T02:29:01;10.30;70.60
74488;DHT22;63019;51.080;13.642;2023-12-28T02:30:05;10.30;69.00
74488;DHT22;63019;51.080;13.642;2023-12-28T02:31:08;10.40;69.00
74488;DHT22;63019;51.080;13.642;2023-12-28T02:32:12;10.40;70.00
74488;DHT22;63019;51.080;13.642;2023-12-28T02:33:38;10.40;70.10
74488;DHT22;63019;51.080;13.642;2023-12-28T02:34:47;10.30;70.20
74488;DHT22;63019;51.080;13.642;2023-12-28T02:35:56;10.40;70.00
74488;DHT22;63019;51.080;13.642;2023-12-28T02:36:59;10.30;71.80
74488;DHT22;63019;51.080;13.642;2023-12-28T02:38:11;10.30;71.80
74488;DHT22;63019;51.080;13.642;2023-12-28T02:39:15;10.40;66.20
74488;DHT22;63019;51.080;13.642;2023-12-28T02:40:18;10.50;66.80
74488;DHT22;63019;51.080;13.642;2023-12-28T02:41:21;10.50;67.20
74488;DHT22;63019;51.080;13.642;2023-12-28T02:42:23;10.60;68.00
74488;DHT22;63019;51.080;13.642;2023-12-28T02:43:25;10.50;68.40
74488;DHT22;63019;51.080;13.642;2023-12-28T02:44:27;10.60;66.40
74488;DHT22;63019;51.080;13.642;2023-12-28T02:45:29;10.60;65.20
74488;DHT22;63019;51.080;13.642;2023-12-28T02:46:31;10.70;64.60
74488;DHT22;63019;51.080;13.642;2023-12-28T02:47:33;10.80;63.40
74488;DHT22;63019;51.080;13.642;2023-12-28T02:48:35;10.80;62.90
74488;DHT22;63019;51.080;13.642;2023-12-28T02:49:37;10.90;63.80
74488;DHT22;63019;51.080;13.642;2023-12-28T02:50:39;10.90;62.90
74488;DHT22;63019;51.080;13.642;2023-12-28T02:51:41;11.00;61.70
74488;DHT22;63019;51.080;13.642;2023-12-28T02:52:44;11.10;62.40
74488;DHT22;63019;51.080;13.642;2023-12-28T02:53:45;11.10;62.00
74488;DHT22;63019;51.080;13.642;2023-12-28T02:54:47;11.10;61.80
74488;DHT22;63019;51.080;13.642;2023-12-28T02:55:49;11.10;61.60
74488;DHT22;63019;51.080;13.642;2023-12-28T02:56:51;11.20;61.20
74488;DHT22;63019;51.080;13.642;2023-12-28T02:57:55;11.20;60.30
74488;DHT22;63019;51.080;13.642;2023-12-28T02:58:57;11.20;60.30
74488;DHT22;63019;51.080;13.642;2023-12-28T02:59:59;11.30;61.50
74488;DHT22;63019;51.080;13.642;2023-12-28T03:01:04;11.30;60.50
74488;DHT22;63019;51.080;13.642;2023-12-28T03:02:06;11.30;61.10
74488;DHT22;63019;51.080;13.642;2023-12-28T03:03:08;11.20;60.80
74488;DHT22;63019;51.080;13.642;2023-12-28T03:04:10;11.30;59.70
74488;DHT22;63019;51.080;13.642;2023-12-28T03:05:12;11.30;61.50
74488;DHT22;63019;51.080;13.642;2023-12-28T03:06:14;11.30;61.10
74488;DHT22;63019;51.080;13.642;2023-12-28T03:07:16;11.30;61.50
74488;DHT22;63019;51.080;13.642;2023-12-28T03:08:18;11.20;61.70
74488;DHT22;63019;51.080;13.642;2023-12-28T03:09:20;11.20;61.70
74488;DHT22;63019;51.080;13.642;2023-12-28T03:10:21;11.10;62.10
74488;DHT22;63019;51.080;13.642;2023-12-28T03:11:23;11.10;61.90
74488;DHT22;63019;51.080;13.642;2023-12-28T03:12:25;11.10;62.00
74488;DHT22;63019;51.080;13.642;2023-12-28T03:13:27;11.10;61.80
74488;DHT22;63019;51.080;13.642;2023-12-28T03:14:29;11.10;62.00
74488;DHT22;63019;51.080;13.642;2023-12-28T03:15:30;11.00;61.30
74488;DHT22;63019;51.080;13.642;2023-12-28T03:16:32;11.00;62.80
74488;DHT22;63019;51.080;13.642;2023-12-28T03:17:35;11.00;63.00
74488;DHT22;63019;51.080;13.642;2023-12-28T03:18:39;10.90;64.10
74488;DHT22;63019;51.080;13.642;2023-12-28T03:19:41;10.90;63.60
74488;DHT22;63019;51.080;13.642;2023-12-28T03:20:43;10.80;65.40
74488;DHT22;63019;51.080;13.642;2023-12-28T03:21:45;10.80;64.10
74488;DHT22;63019;51.080;13.642;2023-12-28T03:22:46;10.80;63.80
74488;DHT22;63019;51.080;13.642;2023-12-28T03:23:48;10.80;64.20
74488;DHT22;63019;51.080;13.642;2023-12-28T03:24:50;10.70;64.70
74488;DHT22;63019;51.080;13.642;2023-12-28T03:25:52;10.70;64.40
74488;DHT22;63019;51.080;13.642;2023-12-28T03:26:54;10.70;63.80
74488;DHT22;63019;51.080;13.642;2023-12-28T03:27:56;10.80;65.30
74488;DHT22;63019;51.080;13.642;2023-12-28T03:28:58;10.70;65.00
74488;DHT22;63019;51.080;13.642;2023-12-28T03:30:00;10.70;65.40
74488;DHT22;63019;51.080;13.642;2023-12-28T03:31:02;10.70;65.10
74488;DHT22;63019;51.080;13.642;2023-12-28T03:32:05;10.70;65.60
74488;DHT22;63019;51.080;13.642;2023-12-28T03:33:07;10.70;66.80
74488;DHT22;63019;51.080;13.642;2023-12-28T03:34:09;10.70;65.00
74488;DHT22;63019;51.080;13.642;2023-12-28T03:35:11;10.70;65.20
74488;DHT22;63019;51.080;13.642;2023-12-28T03:36:19;10.70;65.60
74488;DHT22;63019;51.080;13.642;2023-12-28T03:37:21;10.60;65.70
74488;DHT22;63019;51.080;13.642;2023-12-28T03:38:24;10.70;65.90
74488;DHT22;63019;51.080;13.642;2023-12-28T03:39:25;10.60;65.40
74488;DHT22;63019;51.080;13.642;2023-12-28T03:40:27;10.60;65.40
74488;DHT22;63019;51.080;13.642;2023-12-28T03:41:30;10.60;65.20
74488;DHT22;63019;51.080;13.642;2023-12-28T03:42:31;10.60;66.20
74488;DHT22;63019;51.080;13.642;2023-12-28T03:43:33;10.60;65.60
74488;DHT22;63019;51.080;13.642;2023-12-28T03:44:35;10.60;65.90
74488;DHT22;63019;51.080;13.642;2023-12-28T03:45:37;10.60;64.60
74488;DHT22;63019;51.080;13.642;2023-12-28T03:46:39;10.60;64.50
74488;DHT22;63019;51.080;13.642;2023-12-28T03:47:41;10.60;64.00
74488;DHT22;63019;51.080;13.642;2023-12-28T03:48:43;10.60;63.70
74488;DHT22;63019;51.080;13.642;2023-12-28T03:49:45;10.70;63.20
74488;DHT22;63019;51.080;13.642;2023-12-28T03:50:47;10.70;63.30
74488;DHT22;63019;51.080;13.642;2023-12-28T03:51:49;10.70;64.60
74488;DHT22;63019;51.080;13.642;2023-12-28T03:52:52;10.70;64.80
74488;DHT22;63019;51.080;13.642;2023-12-28T03:53:53;10.70;65.00
74488;DHT22;63019;51.080;13.642;2023-12-28T03:54:55;10.70;64.90
74488;DHT22;63019;51.080;13.642;2023-12-28T03:56:00;10.70;64.80
74488;DHT22;63019;51.080;13.642;2023-12-28T03:57:02;10.70;64.50
74488;DHT22;63019;51.080;13.642;2023-12-28T03:58:04;10.70;64.30
74488;DHT22;63019;51.080;13.642;2023-12-28T03:59:06;10.80;64.20
74488;DHT22;63019;51.080;13.642;2023-12-28T04:00:09;10.80;64.10
74488;DHT22;63019;51.080;13.642;2023-12-28T04:01:11;10.80;64.50
74488;DHT22;63019;51.080;13.642;2023-12-28T04:02:13;10.80;64.10
74488;DHT22;63019;51.080;13.642;2023-12-28T04:03:15;10.90;63.10
74488;DHT22;63019;51.080;13.642;2023-12-28T04:04:17;10.90;64.20
74488;DHT22;63019;51.080;13.642;2023-12-28T04:05:19;10.90;64.20
74488;DHT22;63019;51.080;13.642;2023-12-28T04:06:21;10.90;64.40
74488;DHT22;63019;51.080;13.642;2023-12-28T04:07:23;10.90;64.40
74488;DHT22;63019;51.080;13.642;2023-12-28T04:08:24;10.90;64.90
74488;DHT22;63019;51.080;13.642;2023-12-28T04:09:26;10.90;63.70
74488;DHT22;63019;51.080;13.642;2023-12-28T04:10:32;10.90;64.20
74488;DHT22;63019;51.080;13.642;2023-12-28T04:11:34;10.90;63.00
74488;DHT22;63019;51.080;13.642;2023-12-28T04:12:36;11.00;63.00
74488;DHT22;63019;51.080;13.642;2023-12-28T04:13:39;11.00;63.30
74488;DHT22;63019;51.080;13.642;2023-12-28T04:14:40;11.00;63.90
74488;DHT22;63019;51.080;13.642;2023-12-28T04:15:42;11.00;63.40
74488;DHT22;63019;51.080;13.642;2023-12-28T04:16:44;11.00;63.40
74488;DHT22;63019;51.080;13.642;2023-12-28T04:17:46;11.00;64.00
74488;DHT22;63019;51.080;13.642;2023-12-28T04:18:48;11.00;63.60
74488;DHT22;63019;51.080;13.642;2023-12-28T04:19:50;11.00;63.40
74488;DHT22;63019;51.080;13.642;2023-12-28T04:20:52;11.00;62.50
74488;DHT22;63019;51.080;13.642;2023-12-28T04:21:54;11.10;63.70
74488;DHT22;63019;51.080;13.642;2023-12-28T04:22:57;11.10;63.70
74488;DHT22;63019;51.080;13.642;2023-12-28T04:23:59;11.00;63.90
74488;DHT22;63019;51.080;13.642;2023-12-28T04:25:01;11.10;64.30
74488;DHT22;63019;51.080;13.642;2023-12-28T04:26:03;11.10;63.90
74488;DHT22;63019;51.080;13.642;2023-12-28T04:27:05;11.10;64.70
74488;DHT22;63019;51.080;13.642;2023-12-28T04:28:07;11.00;65.50
74488;DHT22;63019;51.080;13.642;2023-12-28T04:29:09;11.00;65.30
74488;DHT22;63019;51.080;13.642;2023-12-28T04:30:14;11.00;64.20
74488;DHT22;63019;51.080;13.642;2023-12-28T04:31:16;11.10;65.20
74488;DHT22;63019;51.080;13.642;2023-12-28T04:32:18;11.10;65.70
74488;DHT22;63019;51.080;13.642;2023-12-28T04:33:19;11.10;66.50
74488;DHT22;63019;51.080;13.642;2023-12-28T04:34:21;11.10;67.00
74488;DHT22;63019;51.080;13.642;2023-12-28T04:35:24;11.10;67.50
74488;DHT22;63019;51.080;13.642;2023-12-28T04:36:25;11.10;68.20
74488;DHT22;63019;51.080;13.642;2023-12-28T04:37:27;11.10;68.70
74488;DHT22;63019;51.080;13.642;2023-12-28T04:38:30;11.10;68.90
74488;DHT22;63019;51.080;13.642;2023-12-28T04:39:33;11.10;68.80
74488;DHT22;63019;51.080;13.642;2023-12-28T04:40:34;11.20;69.60
74488;DHT22;63019;51.080;13.642;2023-12-28T04:41:37;11.20;69.40
74488;DHT22;63019;51.080;13.642;2023-12-28T04:42:39;11.20;69.10
74488;DHT22;63019;51.080;13.642;2023-12-28T04:43:41;11.20;70.10
74488;DHT22;63019;51.080;13.642;2023-12-28T04:44:43;11.20;70.50
74488;DHT22;63019;51.080;13.642;2023-12-28T04:45:45;11.30;70.50
74488;DHT22;63019;51.080;13.642;2023-12-28T04:46:47;11.30;70.40
74488;DHT22;63019;51.080;13.642;2023-12-28T04:47:49;11.40;70.00
74488;DHT22;63019;51.080;13.642;2023-12-28T04:48:51;11.40;69.50
74488;DHT22;63019;51.080;13.642;2023-12-28T04:49:53;11.50;68.10
74488;DHT22;63019;51.080;13.642;2023-12-28T04:50:55;11.50;69.10
74488;DHT22;63019;51.080;13.642;2023-12-28T04:51:57;11.50;68.90
74488;DHT22;63019;51.080;13.642;2023-12-28T04:52:59;11.50;69.00
74488;DHT22;63019;51.080;13.642;2023-12-28T04:54:00;11.50;68.50
74488;DHT22;63019;51.080;13.642;2023-12-28T04:55:02;11.50;68.50
74488;DHT22;63019;51.080;13.642;2023-12-28T04:56:05;11.50;69.60
74488;DHT22;63019;51.080;13.642;2023-12-28T04:57:07;11.50;69.70
74488;DHT22;63019;51.080;13.642;2023-12-28T04:58:11;11.50;70.20
74488;DHT22;63019;51.080;13.642;2023-12-28T04:59:16;11.50;70.50
74488;DHT22;63019;51.080;13.642;2023-12-28T05:00:18;11.40;70.30
74488;DHT22;63019;51.080;13.642;2023-12-28T05:01:20;11.40;71.80
74488;DHT22;63019;51.080;13.642;2023-12-28T05:02:22;11.40;71.90
74488;DHT22;63019;51.080;13.642;2023-12-28T05:03:24;11.40;72.20
74488;DHT22;63019;51.080;13.642;2023-12-28T05:04:26;11.40;71.50
74488;DHT22;63019;51.080;13.642;2023-12-28T05:05:28;11.40;72.10
74488;DHT22;63019;51.080;13.642;2023-12-28T05:06:30;11.50;71.50
74488;DHT22;63019;51.080;13.642;2023-12-28T05:07:31;11.50;72.30
74488;DHT22;63019;51.080;13.642;2023-12-28T05:08:33;11.50;71.50
74488;DHT22;63019;51.080;13.642;2023-12-28T05:09:35;11.60;72.40
74488;DHT22;63019;51.080;13.642;2023-12-28T05:10:37;11.60;73.30
74488;DHT22;63019;51.080;13.642;2023-12-28T05:11:39;11.60;72.50
74488;DHT22;63019;51.080;13.642;2023-12-28T05:12:41;11.60;71.90
74488;DHT22;63019;51.080;13.642;2023-12-28T05:13:45;11.60;72.30
74488;DHT22;63019;51.080;13.642;2023-12-28T05:14:47;11.60;72.60
74488;DHT22;63019;51.080;13.642;2023-12-28T05:15:49;11.60;73.80
74488;DHT22;63019;51.080;13.642;2023-12-28T05:16:50;11.60;73.90
74488;DHT22;63019;51.080;13.642;2023-12-28T05:17:52;11.60;73.00
74488;DHT22;63019;51.080;13.642;2023-12-28T05:18:54;11.60;73.30
74488;DHT22;63019;51.080;13.642;2023-12-28T05:19:56;11.70;73.40
74488;DHT22;63019;51.080;13.642;2023-12-28T05:20:58;11.70;73.40
74488;DHT22;63019;51.080;13.642;2023-12-28T05:22:00;11.70;74.60
74488;DHT22;63019;51.080;13.642;2023-12-28T05:23:05;11.70;74.00
74488;DHT22;63019;51.080;13.642;2023-12-28T05:24:07;11.70;74.30
74488;DHT22;63019;51.080;13.642;2023-12-28T05:25:09;11.70;75.10
74488;DHT22;63019;51.080;13.642;2023-12-28T05:26:11;11.60;75.00
74488;DHT22;63019;51.080;13.642;2023-12-28T05:27:13;11.60;76.00
74488;DHT22;63019;51.080;13.642;2023-12-28T05:28:15;11.50;76.30
74488;DHT22;63019;51.080;13.642;2023-12-28T05:29:17;11.50;76.30
74488;DHT22;63019;51.080;13.642;2023-12-28T05:30:18;11.50;77.40
74488;DHT22;63019;51.080;13.642;2023-12-28T05:31:20;11.50;77.80
74488;DHT22;63019;51.080;13.642;2023-12-28T05:32:22;11.40;78.60
74488;DHT22;63019;51.080;13.642;2023-12-28T05:33:27;11.40;78.80
74488;DHT22;63019;51.080;13.642;2023-12-28T05:34:29;11.40;80.10
74488;DHT22;63019;51.080;13.642;2023-12-28T05:35:31;11.40;79.70
74488;DHT22;63019;51.080;13.642;2023-12-28T05:36:33;11.40;80.20
74488;DHT22;63019;51.080;13.642;2023-12-28T05:37:35;11.30;81.20
74488;DHT22;63019;51.080;13.642;2023-12-28T05:38:37;11.30;81.10
74488;DHT22;63019;51.080;13.642;2023-12-28T05:39:38;11.30;81.20
74488;DHT22;63019;51.080;13.642;2023-12-28T05:40:40;11.20;82.50
74488;DHT22;63019;51.080;13.642;2023-12-28T05:41:42;11.30;82.60
74488;DHT22;63019;51.080;13.642;2023-12-28T05:42:44;11.30;81.60
74488;DHT22;63019;51.080;13.642;2023-12-28T05:43:46;11.30;82.70
74488;DHT22;63019;51.080;13.642;2023-12-28T05:44:47;11.20;83.10
74488;DHT22;63019;51.080;13.642;2023-12-28T05:45:49;11.20;85.50
74488;DHT22;63019;51.080;13.642;2023-12-28T05:46:51;11.20;85.70
74488;DHT22;63019;51.080;13.642;2023-12-28T05:47:54;11.20;85.60
74488;DHT22;63019;51.080;13.642;2023-12-28T05:48:56;11.20;86.70
74488;DHT22;63019;51.080;13.642;2023-12-28T05:49:58;11.20;88.30
74488;DHT22;63019;51.080;13.642;2023-12-28T05:51:00;11.10;88.70
74488;DHT22;63019;51.080;13.642;2023-12-28T05:52:02;11.20;89.90
74488;DHT22;63019;51.080;13.642;2023-12-28T05:53:04;11.10;90.00
74488;DHT22;63019;51.080;13.642;2023-12-28T05:54:06;11.10;89.90
74488;DHT22;63019;51.080;13.642;2023-12-28T05:55:10;11.10;90.00
74488;DHT22;63019;51.080;13.642;2023-12-28T05:56:12;11.00;90.30
74488;DHT22;63019;51.080;13.642;2023-12-28T05:57:13;11.00;90.40
74488;DHT22;63019;51.080;13.642;2023-12-28T05:58:15;11.00;90.70
74488;DHT22;63019;51.080;13.642;2023-12-28T05:59:17;11.00;90.80
74488;DHT22;63019;51.080;13.642;2023-12-28T06:00:20;11.00;90.50
74488;DHT22;63019;51.080;13.642;2023-12-28T06:01:22;11.00;90.60
74488;DHT22;63019;51.080;13.642;2023-12-28T06:02:23;11.00;90.70
74488;DHT22;63019;51.080;13.642;2023-12-28T06:03:25;11.00;90.90
74488;DHT22;63019;51.080;13.642;2023-12-28T06:04:30;11.00;91.10
74488;DHT22;63019;51.080;13.642;2023-12-28T06:05:32;11.00;91.30
74488;DHT22;63019;51.080;13.642;2023-12-28T06:06:34;11.00;91.10
74488;DHT22;63019;51.080;13.642;2023-12-28T06:07:36;11.10;91.40
74488;DHT22;63019;51.080;13.642;2023-12-28T06:08:37;11.00;91.40
74488;DHT22;63019;51.080;13.642;2023-12-28T06:09:39;11.10;91.50
74488;DHT22;63019;51.080;13.642;2023-12-28T06:10:41;11.10;91.80
74488;DHT22;63019;51.080;13.642;2023-12-28T06:11:43;11.00;92.00
74488;DHT22;63019;51.080;13.642;2023-12-28T06:12:45;11.00;92.20
74488;DHT22;63019;51.080;13.642;2023-12-28T06:13:47;11.00;92.60
74488;DHT22;63019;51.080;13.642;2023-12-28T06:14:49;11.00;92.80
74488;DHT22;63019;51.080;13.642;2023-12-28T06:15:51;11.00;92.90
74488;DHT22;63019;51.080;13.642;2023-12-28T06:16:54;11.00;93.00
74488;DHT22;63019;51.080;13.642;2023-12-28T06:17:56;11.00;93.30
74488;DHT22;63019;51.080;13.642;2023-12-28T06:18:58;11.00;93.40
74488;DHT22;63019;51.080;13.642;2023-12-28T06:20:01;11.00;93.50
74488;DHT22;63019;51.080;13.642;2023-12-28T06:21:04;11.00;93.90
74488;DHT22;63019;51.080;13.642;2023-12-28T06:22:07;11.00;94.00
74488;DHT22;63019;51.080;13.642;2023-12-28T06:23:09;11.00;94.10
74488;DHT22;63019;51.080;13.642;2023-12-28T06:24:11;11.00;94.30
74488;DHT22;63019;51.080;13.642;2023-12-28T06:25:13;11.00;94.10
74488;DHT22;63019;51.080;13.642;2023-12-28T06:26:15;11.00;94.30
74488;DHT22;63019;51.080;13.642;2023-12-28T06:27:18;11.00;94.50
74488;DHT22;63019;51.080;13.642;2023-12-28T06:28:19;11.10;94.40
74488;DHT22;63019;51.080;13.642;2023-12-28T06:29:22;11.10;94.50
74488;DHT22;63019;51.080;13.642;2023-12-28T06:30:24;11.10;94.60
74488;DHT22;63019;51.080;13.642;2023-12-28T06:31:26;11.20;95.00
74488;DHT22;63019;51.080;13.642;2023-12-28T06:32:28;11.20;95.00